Flight Track Log - Related Links

Times and Time Zones

All times are in EST time to prevent confusion due to time zone crossing. See the VH-RUT flight status page for this flight to view local times or setup timezone preferences in your user account.

Time Position Orientation Groundspeed Altitude Reporting Facility
EST Latitude Longitude Course Direction KTS MPH feet Rate Location/Type
Wed 03:43:13 PM -28.1451 153.4945 344° North 80 92 600  Level Aus ATC (RADAR)
Wed 03:43:53 PM -28.1246 153.4880 344° North 114 131 400 -80 Descending Aus ATC (RADAR)
Wed 03:44:28 PM -28.1066 153.4795 337° Northwest 120 138 500 86 Climbing Aus ATC (RADAR)
Wed 03:45:03 PM -28.0890 153.4707 336° Northwest 118 136 500  Level Aus ATC (RADAR)
Wed 03:45:43 PM -28.0693 153.4608 336° Northwest 114 131 500 48 Level Aus ATC (RADAR)
Wed 03:47:08 PM -28.0252 153.4478 346° North 115 132 600 55 Climbing Aus ATC (RADAR)
Wed 03:47:33 PM -28.0117 153.4443 347° North 119 137 600 -200 Level Aus ATC (RADAR)
Wed 03:48:08 PM -27.9916 153.4411 352° North 124 143 400 -80 Descending Aus ATC (RADAR)
Wed 03:48:48 PM -27.9698 153.4363 349° North 119 137 500 80 Climbing Aus ATC (RADAR)
Wed 03:49:23 PM -27.9570 153.4196 311° West 117 135 500  Level Aus ATC (RADAR)
Wed 03:49:58 PM -27.9375 153.4189 358° North 119 137 500 86 Level Aus ATC (RADAR)
Wed 03:50:33 PM -27.9190 153.4212 North 116 133 600  Climbing Aus ATC (RADAR)
Wed 03:52:02 PM -27.8693 153.4198 358° North 120 138 500  Descending Aus ATC (RADAR)
Wed 03:52:38 PM -27.8507 153.4161 350° North 116 133 600 118 Climbing Aus ATC (RADAR)
Wed 03:52:53 PM -27.8424 153.4142 349° North 118 136 600 -122 Level Aus ATC (RADAR)
Wed 03:53:27 PM -27.8229 153.4126 356° North 122 140 500  Descending Aus ATC (RADAR)
Wed 03:54:07 PM -27.8009 153.4103 355° North 118 136 600  Climbing Aus ATC (RADAR)
Wed 03:54:42 PM -27.7817 153.4069 351° North 119 137 500  Descending Aus ATC (RADAR)
Wed 03:55:17 PM -27.7624 153.4039 352° North 119 137 600 80 Climbing Aus ATC (RADAR)
Wed 03:55:57 PM -27.7405 153.3993 349° North 118 136 600  Level Aus ATC (RADAR)
Wed 03:57:27 PM -27.6901 153.3967 357° North 120 138 600  Level Aus ATC (RADAR)
Wed 03:57:52 PM -27.6761 153.3974 North 120 138 600  Level Aus ATC (RADAR)
Wed 03:58:27 PM -27.6566 153.3976 North 119 137 600  Level Aus ATC (RADAR)
Wed 03:59:07 PM -27.6341 153.3979 North 121 139 600  Level Aus ATC (RADAR)
Wed 03:59:42 PM -27.6142 153.3991 North 123 142 600 -86 Level Aus ATC (RADAR)
Wed 04:00:17 PM -27.5948 153.3996 North 120 138 500 -171 Descending Aus ATC (RADAR)
Wed 04:00:52 PM -27.5749 153.3995 360° North 123 142 400 86 Descending Aus ATC (RADAR)
Wed 04:02:37 PM -27.5165 153.3958 357° North 117 135 700 138 Climbing Aus ATC (RADAR)
Wed 04:03:02 PM -27.5029 153.3946 356° North 117 135 700 -200 Level Aus ATC (RADAR)
Wed 04:03:37 PM -27.4828 153.3930 356° North 124 143 500 -162 Descending Aus ATC (RADAR)
Wed 04:04:16 PM -27.4601 153.3915 357° North 123 142 500  Level Aus ATC (RADAR)
Wed 04:04:51 PM -27.4402 153.3894 355° North 122 140 500  Level Aus ATC (RADAR)
Wed 04:05:26 PM -27.4206 153.3879 356° North 121 139 500 86 Level Aus ATC (RADAR)
Wed 04:06:01 PM -27.4012 153.3859 355° North 120 138 600 52 Climbing Aus ATC (RADAR)
Wed 04:07:21 PM -27.3564 153.3826 356° North 121 139 600  Level Aus ATC (RADAR)
Wed 04:07:51 PM -27.3392 153.3798 352° North 124 143 600  Level Aus ATC (RADAR)
Wed 04:08:21 PM -27.3228 153.3770 351° North 121 139 600  Level Aus ATC (RADAR)
Wed 04:09:06 PM -27.2977 153.3742 354° North 122 140 600  Level Aus ATC (RADAR)
Wed 04:09:41 PM -27.2782 153.3715 353° North 121 139 600 -86 Level Aus ATC (RADAR)
Wed 04:10:16 PM -27.2588 153.3688 353° North 120 138 500 -86 Descending Aus ATC (RADAR)
Wed 04:10:51 PM -27.2404 153.3650 350° North 115 132 500  Level Aus ATC (RADAR)
Wed 04:12:11 PM -27.1977 153.3612 355° North 115 132 500  Level Aus ATC (RADAR)
Wed 04:12:31 PM -27.1868 153.3621 North 116 133 500  Level Aus ATC (RADAR)
Wed 04:12:56 PM -27.1737 153.3634 North 114 131 500  Level Aus ATC (RADAR)
Wed 04:13:31 PM -27.1553 153.3615 355° North 114 131 500 75 Level Aus ATC (RADAR)
Wed 04:14:16 PM -27.1332 153.3560 347° North 107 123 600 75 Climbing Aus ATC (RADAR)
Wed 04:14:51 PM -27.1183 153.3449 326° Northwest 107 123 600  Level Aus ATC (RADAR)
Wed 04:15:36 PM -27.0971 153.3328 333° Northwest 113 130 600  Level Aus ATC (RADAR)
Wed 04:16:01 PM -27.0849 153.3283 342° North 111 128 600  Level Aus ATC (RADAR)
Wed 04:17:20 PM -27.0442 153.3173 347° North 113 130 600  Level Aus ATC (RADAR)
Wed 04:17:40 PM -27.0340 153.3136 342° North 114 131 600  Level Aus ATC (RADAR)
Wed 04:18:05 PM -27.0215 153.3088 341° North 114 131 600  Level Aus ATC (RADAR)
Wed 04:18:40 PM -27.0045 153.2995 334° Northwest 115 132 600  Level Aus ATC (RADAR)
Wed 04:19:30 PM -26.9809 153.2849 331° Northwest 114 131 600  Level Aus ATC (RADAR)
Wed 04:20:05 PM -26.9641 153.2749 332° Northwest 116 133 600  Level Aus ATC (RADAR)
Wed 04:20:50 PM -26.9424 153.2606 330° Northwest 120 138 600 -86 Level Aus ATC (RADAR)
Wed 04:21:15 PM -26.9308 153.2524 328° Northwest 118 136 500  Descending Aus ATC (RADAR)
Wed 04:22:55 PM -26.8845 153.2212 329° Northwest 116 133 600  Climbing Aus ATC (RADAR)
Wed 04:23:15 PM -26.8749 153.2153 332° Northwest 118 136 500  Descending Aus ATC (RADAR)
Wed 04:23:50 PM -26.8569 153.2062 336° Northwest 120 138 600  Climbing Aus ATC (RADAR)
Wed 04:24:35 PM -26.8333 153.1956 338° Northwest 121 139 500  Descending Aus ATC (RADAR)
Wed 04:25:09 PM -26.8146 153.1890 343° North 120 138 600 87 Climbing Aus ATC (RADAR)
Wed 04:25:44 PM -26.7963 153.1818 340° North 119 137 600  Level Aus ATC (RADAR)
Wed 04:26:19 PM -26.7782 153.1742 340° North 118 136 600  Level Aus ATC (RADAR)
Wed 04:27:44 PM -26.7329 153.1601 344° North 119 137 600  Level Aus ATC (RADAR)
Wed 04:28:14 PM -26.7170 153.1548 344° North 119 137 600  Level Aus ATC (RADAR)
Wed 04:28:49 PM -26.6985 153.1490 344° North 118 136 600  Level Aus ATC (RADAR)
Wed 04:29:34 PM -26.6744 153.1417 345° North 120 138 600  Level Aus ATC (RADAR)
Wed 04:30:09 PM -26.6553 153.1372 348° North 120 138 600  Level Aus ATC (RADAR)
Wed 04:30:54 PM -26.6310 153.1319 349° North 118 136 600 86 Level Aus ATC (RADAR)
Wed 04:31:19 PM -26.6175 153.1310 356° North 116 133 700 55 Climbing Aus ATC (RADAR)
Wed 04:32:44 PM -26.5713 153.1293 358° North 117 135 700 -57 Level Aus ATC (RADAR)
Wed 04:33:04 PM -26.5604 153.1290 359° North 117 135 600 -133 Descending Aus ATC (RADAR)
Wed 04:33:29 PM -26.5465 153.1291 360° North 119 137 600  Level Aus ATC (RADAR)
Wed 04:34:04 PM -26.5274 153.1288 359° North 117 135 600 -141 Level Aus ATC (RADAR)
Wed 04:34:54 PM -26.5001 153.1283 359° North 118 136 400 -240 Descending Aus ATC (RADAR)
Wed 04:37:58 PM -26.4263 153.1126 349° North -130 Descending Aus ATC (Calculated)
Wed 04:39:00 PM -26.4172 153.1107 349° North  Level Estimated
Wed 04:40:00 PM -26.4083 153.1088 349° North  Level Estimated
Wed 04:41:00 PM -26.3995 153.1069 349° North  Level Estimated
Wed 04:42:00 PM -26.3907 153.1051 349° North  Level Estimated
Wed 04:43:00 PM -26.3818 153.1032 349° North  Level Estimated
Wed 04:44:00 PM -26.3730 153.1013 349° North  Level Estimated
Wed 04:44:28 PM -26.2187 153.0687 169° South  Level Aus ATC (Calculated)
Wed 04:45:00 PM -26.3641 153.0995 349° North  Level Estimated
Wed 04:46:00 PM -26.2052 153.0659 349° North  Level Estimated
Wed 04:47:00 PM -26.1963 153.0640 349° North  Level Estimated
Wed 04:48:00 PM -26.1875 153.0621 349° North  Level Estimated
Wed 04:49:00 PM -26.1786 153.0603 349° North  Level Estimated
Wed 04:50:00 PM -26.1698 153.0584 349° North  Level Estimated
Wed 04:51:00 PM -26.1610 153.0566 349° North  Level Estimated
Wed 04:52:00 PM -26.1521 153.0547 349° North  Level Estimated
Wed 04:53:00 PM -26.1433 153.0529 349° North  Level Estimated
Wed 04:54:00 PM -26.1344 153.0510 349° North  Level Estimated
Wed 04:55:00 PM -26.1256 153.0491 349° North  Level Estimated
Wed 04:56:00 PM -26.1168 153.0473 349° North  Level Estimated
Wed 04:57:00 PM -26.1079 153.0454 349° North  Level Estimated
Wed 04:58:00 PM -26.0991 153.0435 349° North  Level Estimated
Wed 04:59:00 PM -26.0902 153.0417 349° North  Level Estimated
Wed 05:00:00 PM -26.0814 153.0398 349° North  Level Estimated
Wed 05:01:00 PM -26.0726 153.0380 349° North  Level Estimated
Wed 05:02:00 PM -26.0637 153.0361 349° North  Level Estimated
Wed 05:03:00 PM -26.0549 153.0343 349° North  Level Estimated
Wed 05:04:00 PM -26.0460 153.0324 349° North  Level Estimated
Wed 05:05:00 PM -26.0372 153.0305 349° North  Level Estimated
Wed 05:06:00 PM -26.0284 153.0287 349° North  Level Estimated
Wed 05:07:00 PM -26.0195 153.0268 349° North  Level Estimated
Wed 05:08:00 PM -26.0107 153.0249 349° North  Level Estimated
Wed 05:09:00 PM -26.0018 153.0231 349° North  Level Estimated
Wed 05:10:00 PM -25.9930 153.0212 349° North  Level Estimated
Wed 05:11:00 PM -25.9842 153.0194 349° North  Level Estimated
Wed 05:12:00 PM -25.9753 153.0175 349° North  Level Estimated
Wed 05:13:00 PM -25.9665 153.0157 349° North  Level Estimated
Wed 05:14:00 PM -25.9576 153.0138 349° North  Level Estimated
Wed 05:15:00 PM -25.9488 153.0119 349° North  Level Estimated
Wed 05:16:00 PM -25.9400 153.0101 349° North  Level Estimated
Wed 05:17:00 PM -25.9311 153.0082 349° North  Level Estimated
Wed 05:18:00 PM -25.9223 153.0063 349° North  Level Estimated

Login

Don't have an account? Register now (free) for customized features, flight alerts, and more!